sensor_id;sensor_type;location;lat;lon;timestamp;P1;durP1;ratioP1;P2;durP2;ratioP2
18657;SDS011;9458;50.942;5.074;2024-03-06T00:00:55;5.57;;;4.35;;
18657;SDS011;9458;50.942;5.074;2024-03-06T00:03:28;9.38;;;5.10;;
18657;SDS011;9458;50.942;5.074;2024-03-06T00:05:55;6.10;;;4.65;;
18657;SDS011;9458;50.942;5.074;2024-03-06T00:08:22;6.35;;;4.68;;
18657;SDS011;9458;50.942;5.074;2024-03-06T00:10:49;8.57;;;4.95;;
18657;SDS011;9458;50.942;5.074;2024-03-06T00:13:18;7.05;;;4.35;;
18657;SDS011;9458;50.942;5.074;2024-03-06T00:15:45;7.82;;;4.97;;
18657;SDS011;9458;50.942;5.074;2024-03-06T00:18:13;7.43;;;4.53;;
18657;SDS011;9458;50.942;5.074;2024-03-06T00:20:40;7.80;;;5.05;;
18657;SDS011;9458;50.942;5.074;2024-03-06T00:23:07;7.38;;;4.60;;
18657;SDS011;9458;50.942;5.074;2024-03-06T00:25:34;6.45;;;4.63;;
18657;SDS011;9458;50.942;5.074;2024-03-06T00:28:01;8.68;;;4.95;;
18657;SDS011;9458;50.942;5.074;2024-03-06T00:30:30;10.80;;;5.43;;
18657;SDS011;9458;50.942;5.074;2024-03-06T00:32:57;7.47;;;4.77;;
18657;SDS011;9458;50.942;5.074;2024-03-06T00:35:24;6.88;;;5.10;;
18657;SDS011;9458;50.942;5.074;2024-03-06T00:37:51;6.50;;;4.80;;
18657;SDS011;9458;50.942;5.074;2024-03-06T00:40:19;7.65;;;5.43;;
18657;SDS011;9458;50.942;5.074;2024-03-06T00:42:46;8.75;;;5.28;;
18657;SDS011;9458;50.942;5.074;2024-03-06T00:45:13;7.20;;;5.45;;
18657;SDS011;9458;50.942;5.074;2024-03-06T00:47:42;8.77;;;5.30;;
18657;SDS011;9458;50.942;5.074;2024-03-06T00:50:09;8.37;;;5.47;;
18657;SDS011;9458;50.942;5.074;2024-03-06T00:52:36;6.72;;;4.97;;
18657;SDS011;9458;50.942;5.074;2024-03-06T00:55:03;9.13;;;6.07;;
18657;SDS011;9458;50.942;5.074;2024-03-06T00:57:31;9.38;;;5.20;;
18657;SDS011;9458;50.942;5.074;2024-03-06T00:59:58;8.75;;;5.85;;
18657;SDS011;9458;50.942;5.074;2024-03-06T01:02:25;8.40;;;5.53;;
18657;SDS011;9458;50.942;5.074;2024-03-06T01:04:54;6.20;;;5.40;;
18657;SDS011;9458;50.942;5.074;2024-03-06T01:07:21;8.18;;;5.50;;
18657;SDS011;9458;50.942;5.074;2024-03-06T01:09:48;8.15;;;5.45;;
18657;SDS011;9458;50.942;5.074;2024-03-06T01:12:16;10.63;;;6.28;;
18657;SDS011;9458;50.942;5.074;2024-03-06T01:14:43;8.15;;;5.50;;
18657;SDS011;9458;50.942;5.074;2024-03-06T01:17:10;9.07;;;5.90;;
18657;SDS011;9458;50.942;5.074;2024-03-06T01:19:37;8.85;;;5.93;;
18657;SDS011;9458;50.942;5.074;2024-03-06T01:22:05;8.38;;;5.80;;
18657;SDS011;9458;50.942;5.074;2024-03-06T01:24:33;8.95;;;5.88;;
18657;SDS011;9458;50.942;5.074;2024-03-06T01:27:02;9.07;;;5.97;;
18657;SDS011;9458;50.942;5.074;2024-03-06T01:29:29;7.97;;;5.38;;
18657;SDS011;9458;50.942;5.074;2024-03-06T01:31:56;10.32;;;6.38;;
18657;SDS011;9458;50.942;5.074;2024-03-06T01:34:24;9.95;;;6.28;;
18657;SDS011;9458;50.942;5.074;2024-03-06T01:36:51;9.40;;;6.03;;
18657;SDS011;9458;50.942;5.074;2024-03-06T01:39:19;12.43;;;6.30;;
18657;SDS011;9458;50.942;5.074;2024-03-06T01:41:46;8.38;;;5.60;;
18657;SDS011;9458;50.942;5.074;2024-03-06T01:44:14;6.78;;;5.80;;
18657;SDS011;9458;50.942;5.074;2024-03-06T01:46:41;12.52;;;7.07;;
18657;SDS011;9458;50.942;5.074;2024-03-06T01:49:10;11.02;;;6.47;;
18657;SDS011;9458;50.942;5.074;2024-03-06T01:51:37;11.00;;;6.40;;
18657;SDS011;9458;50.942;5.074;2024-03-06T01:54:04;8.65;;;6.15;;
18657;SDS011;9458;50.942;5.074;2024-03-06T01:56:37;13.57;;;6.63;;
18657;SDS011;9458;50.942;5.074;2024-03-06T01:59:07;9.43;;;6.18;;
18657;SDS011;9458;50.942;5.074;2024-03-06T02:01:34;9.85;;;5.95;;
18657;SDS011;9458;50.942;5.074;2024-03-06T02:04:02;7.43;;;5.47;;
18657;SDS011;9458;50.942;5.074;2024-03-06T02:06:30;10.90;;;6.10;;
18657;SDS011;9458;50.942;5.074;2024-03-06T02:08:57;8.13;;;5.70;;
18657;SDS011;9458;50.942;5.074;2024-03-06T02:11:24;10.82;;;6.47;;
18657;SDS011;9458;50.942;5.074;2024-03-06T02:13:54;10.05;;;6.30;;
18657;SDS011;9458;50.942;5.074;2024-03-06T02:16:21;7.90;;;5.80;;
18657;SDS011;9458;50.942;5.074;2024-03-06T02:18:52;9.57;;;6.30;;
18657;SDS011;9458;50.942;5.074;2024-03-06T02:21:21;9.40;;;6.05;;
18657;SDS011;9458;50.942;5.074;2024-03-06T02:23:48;12.77;;;6.32;;
18657;SDS011;9458;50.942;5.074;2024-03-06T02:26:16;7.78;;;5.53;;
18657;SDS011;9458;50.942;5.074;2024-03-06T02:28:46;9.52;;;6.05;;
18657;SDS011;9458;50.942;5.074;2024-03-06T02:31:14;9.50;;;6.13;;
18657;SDS011;9458;50.942;5.074;2024-03-06T02:33:42;11.98;;;6.50;;
18657;SDS011;9458;50.942;5.074;2024-03-06T02:36:09;9.23;;;6.07;;
18657;SDS011;9458;50.942;5.074;2024-03-06T02:38:38;10.07;;;6.03;;
18657;SDS011;9458;50.942;5.074;2024-03-06T02:41:05;9.37;;;5.80;;
18657;SDS011;9458;50.942;5.074;2024-03-06T02:43:33;9.45;;;6.40;;
18657;SDS011;9458;50.942;5.074;2024-03-06T02:46:00;9.57;;;6.18;;
18657;SDS011;9458;50.942;5.074;2024-03-06T02:48:27;9.55;;;6.00;;
18657;SDS011;9458;50.942;5.074;2024-03-06T02:50:56;11.77;;;6.65;;
18657;SDS011;9458;50.942;5.074;2024-03-06T02:53:23;9.57;;;7.18;;
18657;SDS011;9458;50.942;5.074;2024-03-06T02:55:53;8.18;;;6.20;;
18657;SDS011;9458;50.942;5.074;2024-03-06T02:58:20;11.80;;;6.67;;
18657;SDS011;9458;50.942;5.074;2024-03-06T03:00:47;11.98;;;6.38;;
18657;SDS011;9458;50.942;5.074;2024-03-06T03:03:14;12.27;;;6.72;;
18657;SDS011;9458;50.942;5.074;2024-03-06T03:05:41;9.50;;;6.70;;
18657;SDS011;9458;50.942;5.074;2024-03-06T03:08:08;10.85;;;7.07;;
18657;SDS011;9458;50.942;5.074;2024-03-06T03:10:35;8.15;;;6.38;;
18657;SDS011;9458;50.942;5.074;2024-03-06T03:13:04;9.23;;;6.20;;
18657;SDS011;9458;50.942;5.074;2024-03-06T03:15:31;9.90;;;5.17;;
18657;SDS011;9458;50.942;5.074;2024-03-06T03:17:58;9.52;;;6.18;;
18657;SDS011;9458;50.942;5.074;2024-03-06T03:20:25;10.23;;;6.72;;
18657;SDS011;9458;50.942;5.074;2024-03-06T03:22:52;10.95;;;6.45;;
18657;SDS011;9458;50.942;5.074;2024-03-06T03:25:19;10.85;;;6.72;;
18657;SDS011;9458;50.942;5.074;2024-03-06T03:27:47;10.20;;;6.05;;
18657;SDS011;9458;50.942;5.074;2024-03-06T03:30:15;9.48;;;5.93;;
18657;SDS011;9458;50.942;5.074;2024-03-06T03:32:46;9.15;;;6.68;;
18657;SDS011;9458;50.942;5.074;2024-03-06T03:35:13;10.88;;;6.20;;
18657;SDS011;9458;50.942;5.074;2024-03-06T03:37:42;7.10;;;5.40;;
18657;SDS011;9458;50.942;5.074;2024-03-06T03:40:10;8.30;;;6.00;;
18657;SDS011;9458;50.942;5.074;2024-03-06T03:42:37;8.00;;;5.80;;
18657;SDS011;9458;50.942;5.074;2024-03-06T03:45:05;9.60;;;6.68;;
18657;SDS011;9458;50.942;5.074;2024-03-06T03:47:33;8.73;;;6.03;;
18657;SDS011;9458;50.942;5.074;2024-03-06T03:50:00;10.02;;;5.57;;
18657;SDS011;9458;50.942;5.074;2024-03-06T03:52:27;9.27;;;5.63;;
18657;SDS011;9458;50.942;5.074;2024-03-06T03:54:56;9.20;;;5.97;;
18657;SDS011;9458;50.942;5.074;2024-03-06T03:57:23;8.30;;;5.50;;
18657;SDS011;9458;50.942;5.074;2024-03-06T03:59:50;7.82;;;5.25;;
18657;SDS011;9458;50.942;5.074;2024-03-06T04:02:17;8.38;;;6.13;;
18657;SDS011;9458;50.942;5.074;2024-03-06T04:04:46;7.93;;;6.57;;
18657;SDS011;9458;50.942;5.074;2024-03-06T04:07:13;8.50;;;6.65;;
18657;SDS011;9458;50.942;5.074;2024-03-06T04:09:41;12.63;;;6.25;;
18657;SDS011;9458;50.942;5.074;2024-03-06T04:12:08;8.43;;;5.22;;
18657;SDS011;9458;50.942;5.074;2024-03-06T04:14:35;11.93;;;6.72;;
18657;SDS011;9458;50.942;5.074;2024-03-06T04:17:02;8.38;;;5.68;;
18657;SDS011;9458;50.942;5.074;2024-03-06T04:19:30;11.82;;;6.55;;
18657;SDS011;9458;50.942;5.074;2024-03-06T04:21:59;9.30;;;5.60;;
18657;SDS011;9458;50.942;5.074;2024-03-06T04:24:27;9.50;;;6.78;;
18657;SDS011;9458;50.942;5.074;2024-03-06T04:26:54;11.27;;;7.00;;
18657;SDS011;9458;50.942;5.074;2024-03-06T04:29:22;10.93;;;7.50;;
18657;SDS011;9458;50.942;5.074;2024-03-06T04:31:49;9.57;;;7.13;;
18657;SDS011;9458;50.942;5.074;2024-03-06T04:34:16;11.32;;;6.53;;
18657;SDS011;9458;50.942;5.074;2024-03-06T04:36:43;9.30;;;6.80;;
18657;SDS011;9458;50.942;5.074;2024-03-06T04:39:11;9.65;;;6.95;;
18657;SDS011;9458;50.942;5.074;2024-03-06T04:41:38;10.77;;;6.55;;
18657;SDS011;9458;50.942;5.074;2024-03-06T04:44:05;8.23;;;6.05;;
18657;SDS011;9458;50.942;5.074;2024-03-06T04:46:32;10.85;;;6.88;;
18657;SDS011;9458;50.942;5.074;2024-03-06T04:48:59;7.85;;;6.28;;
18657;SDS011;9458;50.942;5.074;2024-03-06T04:51:26;8.68;;;5.85;;
18657;SDS011;9458;50.942;5.074;2024-03-06T04:53:53;7.55;;;5.63;;
18657;SDS011;9458;50.942;5.074;2024-03-06T04:56:21;9.50;;;6.25;;
18657;SDS011;9458;50.942;5.074;2024-03-06T04:58:48;9.20;;;5.63;;
18657;SDS011;9458;50.942;5.074;2024-03-06T05:01:16;6.30;;;5.20;;
18657;SDS011;9458;50.942;5.074;2024-03-06T05:03:44;10.45;;;5.70;;
18657;SDS011;9458;50.942;5.074;2024-03-06T05:06:11;13.35;;;6.95;;
18657;SDS011;9458;50.942;5.074;2024-03-06T05:08:38;11.05;;;7.53;;
18657;SDS011;9458;50.942;5.074;2024-03-06T05:11:05;12.63;;;7.53;;
18657;SDS011;9458;50.942;5.074;2024-03-06T05:13:34;10.10;;;6.53;;
18657;SDS011;9458;50.942;5.074;2024-03-06T05:16:01;10.23;;;6.82;;
18657;SDS011;9458;50.942;5.074;2024-03-06T05:18:28;11.55;;;6.82;;
18657;SDS011;9458;50.942;5.074;2024-03-06T05:20:55;10.48;;;6.50;;
18657;SDS011;9458;50.942;5.074;2024-03-06T05:23:22;14.02;;;6.70;;
18657;SDS011;9458;50.942;5.074;2024-03-06T05:25:49;11.43;;;7.00;;
18657;SDS011;9458;50.942;5.074;2024-03-06T05:28:16;9.60;;;6.45;;
18657;SDS011;9458;50.942;5.074;2024-03-06T05:30:45;13.77;;;6.63;;
18657;SDS011;9458;50.942;5.074;2024-03-06T05:33:12;12.07;;;8.73;;
18657;SDS011;9458;50.942;5.074;2024-03-06T05:35:39;10.70;;;7.03;;
18657;SDS011;9458;50.942;5.074;2024-03-06T05:38:07;10.32;;;6.72;;
18657;SDS011;9458;50.942;5.074;2024-03-06T05:40:34;8.90;;;6.30;;
18657;SDS011;9458;50.942;5.074;2024-03-06T05:43:04;11.18;;;7.22;;
18657;SDS011;9458;50.942;5.074;2024-03-06T05:45:31;13.30;;;7.25;;
18657;SDS011;9458;50.942;5.074;2024-03-06T05:48:00;10.32;;;6.70;;
18657;SDS011;9458;50.942;5.074;2024-03-06T05:50:29;11.95;;;6.78;;
18657;SDS011;9458;50.942;5.074;2024-03-06T05:52:57;9.45;;;6.38;;
18657;SDS011;9458;50.942;5.074;2024-03-06T05:55:25;8.35;;;6.22;;
18657;SDS011;9458;50.942;5.074;2024-03-06T05:57:52;10.63;;;6.70;;
18657;SDS011;9458;50.942;5.074;2024-03-06T06:00:19;9.70;;;6.38;;
18657;SDS011;9458;50.942;5.074;2024-03-06T06:02:47;9.00;;;6.18;;
18657;SDS011;9458;50.942;5.074;2024-03-06T06:05:15;8.70;;;6.20;;
18657;SDS011;9458;50.942;5.074;2024-03-06T06:07:45;10.90;;;6.40;;
18657;SDS011;9458;50.942;5.074;2024-03-06T06:10:13;8.88;;;6.38;;
18657;SDS011;9458;50.942;5.074;2024-03-06T06:12:40;10.50;;;6.57;;
18657;SDS011;9458;50.942;5.074;2024-03-06T06:15:07;8.52;;;5.75;;
18657;SDS011;9458;50.942;5.074;2024-03-06T06:17:35;9.10;;;6.07;;
18657;SDS011;9458;50.942;5.074;2024-03-06T06:20:05;9.50;;;6.30;;
18657;SDS011;9458;50.942;5.074;2024-03-06T06:22:40;8.68;;;5.53;;
18657;SDS011;9458;50.942;5.074;2024-03-06T06:25:07;10.43;;;6.80;;
18657;SDS011;9458;50.942;5.074;2024-03-06T06:27:35;9.50;;;6.30;;
18657;SDS011;9458;50.942;5.074;2024-03-06T06:30:02;11.48;;;6.68;;
18657;SDS011;9458;50.942;5.074;2024-03-06T06:32:31;8.68;;;6.43;;
18657;SDS011;9458;50.942;5.074;2024-03-06T06:34:58;11.07;;;6.15;;
18657;SDS011;9458;50.942;5.074;2024-03-06T06:37:25;9.52;;;5.88;;
18657;SDS011;9458;50.942;5.074;2024-03-06T06:39:54;10.50;;;5.85;;
18657;SDS011;9458;50.942;5.074;2024-03-06T06:42:22;9.65;;;6.40;;
18657;SDS011;9458;50.942;5.074;2024-03-06T06:44:50;11.48;;;7.20;;
18657;SDS011;9458;50.942;5.074;2024-03-06T06:47:17;9.45;;;6.90;;
18657;SDS011;9458;50.942;5.074;2024-03-06T06:49:44;10.25;;;6.38;;
18657;SDS011;9458;50.942;5.074;2024-03-06T06:52:11;9.38;;;6.57;;
18657;SDS011;9458;50.942;5.074;2024-03-06T06:54:38;10.43;;;6.22;;
18657;SDS011;9458;50.942;5.074;2024-03-06T06:57:07;8.20;;;5.75;;
18657;SDS011;9458;50.942;5.074;2024-03-06T06:59:34;7.63;;;5.40;;
18657;SDS011;9458;50.942;5.074;2024-03-06T07:02:02;7.28;;;5.57;;
18657;SDS011;9458;50.942;5.074;2024-03-06T07:04:29;7.07;;;5.10;;
18657;SDS011;9458;50.942;5.074;2024-03-06T07:06:56;9.00;;;5.60;;
18657;SDS011;9458;50.942;5.074;2024-03-06T07:09:23;8.43;;;5.97;;
18657;SDS011;9458;50.942;5.074;2024-03-06T07:11:54;8.30;;;5.72;;
18657;SDS011;9458;50.942;5.074;2024-03-06T07:14:23;7.97;;;5.55;;
18657;SDS011;9458;50.942;5.074;2024-03-06T07:16:50;6.90;;;5.30;;
18657;SDS011;9458;50.942;5.074;2024-03-06T07:19:17;6.65;;;4.82;;
18657;SDS011;9458;50.942;5.074;2024-03-06T07:21:45;9.57;;;5.72;;
18657;SDS011;9458;50.942;5.074;2024-03-06T07:24:12;9.32;;;5.75;;
18657;SDS011;9458;50.942;5.074;2024-03-06T07:26:39;7.57;;;5.22;;
18657;SDS011;9458;50.942;5.074;2024-03-06T07:29:06;6.85;;;5.28;;
18657;SDS011;9458;50.942;5.074;2024-03-06T07:31:41;9.23;;;5.45;;
18657;SDS011;9458;50.942;5.074;2024-03-06T07:36:36;9.38;;;5.90;;
18657;SDS011;9458;50.942;5.074;2024-03-06T07:39:03;8.35;;;6.25;;
18657;SDS011;9458;50.942;5.074;2024-03-06T07:41:30;12.55;;;6.63;;
18657;SDS011;9458;50.942;5.074;2024-03-06T07:43:58;11.35;;;6.18;;
18657;SDS011;9458;50.942;5.074;2024-03-06T07:46:25;9.25;;;6.80;;
18657;SDS011;9458;50.942;5.074;2024-03-06T07:48:54;7.40;;;5.93;;
18657;SDS011;9458;50.942;5.074;2024-03-06T07:51:22;7.40;;;6.05;;
18657;SDS011;9458;50.942;5.074;2024-03-06T07:53:50;6.32;;;5.50;;
18657;SDS011;9458;50.942;5.074;2024-03-06T07:56:17;6.40;;;5.13;;
18657;SDS011;9458;50.942;5.074;2024-03-06T07:58:44;6.07;;;5.30;;
18657;SDS011;9458;50.942;5.074;2024-03-06T08:01:12;7.80;;;5.45;;
18657;SDS011;9458;50.942;5.074;2024-03-06T08:03:39;8.00;;;5.70;;
18657;SDS011;9458;50.942;5.074;2024-03-06T08:06:09;7.97;;;5.30;;
18657;SDS011;9458;50.942;5.074;2024-03-06T08:08:39;8.85;;;6.07;;
18657;SDS011;9458;50.942;5.074;2024-03-06T08:11:06;7.43;;;4.85;;
18657;SDS011;9458;50.942;5.074;2024-03-06T08:13:35;9.43;;;5.22;;
18657;SDS011;9458;50.942;5.074;2024-03-06T08:16:03;7.25;;;5.30;;
18657;SDS011;9458;50.942;5.074;2024-03-06T08:18:30;9.10;;;5.53;;
18657;SDS011;9458;50.942;5.074;2024-03-06T08:20:58;6.43;;;5.45;;
18657;SDS011;9458;50.942;5.074;2024-03-06T08:23:27;5.05;;;4.55;;
18657;SDS011;9458;50.942;5.074;2024-03-06T08:25:55;7.95;;;4.90;;
18657;SDS011;9458;50.942;5.074;2024-03-06T08:28:22;7.22;;;4.65;;
18657;SDS011;9458;50.942;5.074;2024-03-06T08:30:50;5.75;;;4.63;;
18657;SDS011;9458;50.942;5.074;2024-03-06T08:33:18;7.07;;;5.40;;
18657;SDS011;9458;50.942;5.074;2024-03-06T08:35:46;8.27;;;4.78;;
18657;SDS011;9458;50.942;5.074;2024-03-06T08:38:13;9.40;;;5.88;;
18657;SDS011;9458;50.942;5.074;2024-03-06T08:40:43;7.35;;;5.40;;
18657;SDS011;9458;50.942;5.074;2024-03-06T08:43:11;6.05;;;4.65;;
18657;SDS011;9458;50.942;5.074;2024-03-06T08:48:07;7.95;;;4.82;;
18657;SDS011;9458;50.942;5.074;2024-03-06T08:50:34;6.43;;;4.80;;
18657;SDS011;9458;50.942;5.074;2024-03-06T08:53:01;7.43;;;5.32;;
18657;SDS011;9458;50.942;5.074;2024-03-06T08:55:28;8.48;;;5.70;;
18657;SDS011;9458;50.942;5.074;2024-03-06T08:57:57;6.40;;;5.35;;
18657;SDS011;9458;50.942;5.074;2024-03-06T09:00:26;7.85;;;5.13;;
18657;SDS011;9458;50.942;5.074;2024-03-06T09:02:53;9.95;;;5.40;;
